sensor_id;sensor_type;location;lat;lon;timestamp;pressure;altitude;pressure_sealevel;temperature;humidity
41862;BME280;27537;57.134;-2.136;2022-07-22T00:00:30;101981.06;;;15.88;100.00
41862;BME280;27537;57.134;-2.136;2022-07-22T00:02:57;101976.56;;;15.90;100.00
41862;BME280;27537;57.134;-2.136;2022-07-22T00:05:24;101980.56;;;15.79;100.00
41862;BME280;27537;57.134;-2.136;2022-07-22T00:07:51;101993.16;;;15.70;100.00
41862;BME280;27537;57.134;-2.136;2022-07-22T00:10:18;101984.81;;;15.59;100.00
41862;BME280;27537;57.134;-2.136;2022-07-22T00:12:44;101956.03;;;15.53;100.00
41862;BME280;27537;57.134;-2.136;2022-07-22T00:15:11;101969.81;;;15.83;100.00
41862;BME280;27537;57.134;-2.136;2022-07-22T00:17:38;101975.63;;;15.91;100.00
41862;BME280;27537;57.134;-2.136;2022-07-22T00:20:06;101965.75;;;15.97;100.00
41862;BME280;27537;57.134;-2.136;2022-07-22T00:22:33;101965.94;;;15.92;100.00
41862;BME280;27537;57.134;-2.136;2022-07-22T00:25:00;101960.28;;;16.01;100.00
41862;BME280;27537;57.134;-2.136;2022-07-22T00:27:27;101964.63;;;16.02;100.00
41862;BME280;27537;57.134;-2.136;2022-07-22T00:29:53;101957.94;;;16.16;100.00
41862;BME280;27537;57.134;-2.136;2022-07-22T00:32:20;101959.16;;;16.07;100.00
41862;BME280;27537;57.134;-2.136;2022-07-22T00:34:48;101959.63;;;15.96;100.00
41862;BME280;27537;57.134;-2.136;2022-07-22T00:37:15;101960.38;;;15.54;100.00
41862;BME280;27537;57.134;-2.136;2022-07-22T00:39:42;101965.25;;;15.41;100.00
41862;BME280;27537;57.134;-2.136;2022-07-22T00:42:09;101964.56;;;15.36;100.00
41862;BME280;27537;57.134;-2.136;2022-07-22T00:44:36;101970.16;;;15.28;100.00
41862;BME280;27537;57.134;-2.136;2022-07-22T00:47:05;101958.72;;;15.73;100.00
41862;BME280;27537;57.134;-2.136;2022-07-22T00:49:32;101967.97;;;15.85;100.00
41862;BME280;27537;57.134;-2.136;2022-07-22T00:51:59;101963.09;;;16.19;100.00
41862;BME280;27537;57.134;-2.136;2022-07-22T00:54:26;101970.22;;;16.17;100.00
41862;BME280;27537;57.134;-2.136;2022-07-22T00:56:52;101952.25;;;16.25;100.00
41862;BME280;27537;57.134;-2.136;2022-07-22T00:59:19;101934.09;;;16.17;100.00
41862;BME280;27537;57.134;-2.136;2022-07-22T01:01:46;101941.19;;;15.94;100.00
41862;BME280;27537;57.134;-2.136;2022-07-22T01:04:13;101962.13;;;15.77;100.00
41862;BME280;27537;57.134;-2.136;2022-07-22T01:06:40;101938.38;;;15.99;100.00
41862;BME280;27537;57.134;-2.136;2022-07-22T01:09:12;101944.91;;;16.11;100.00
41862;BME280;27537;57.134;-2.136;2022-07-22T01:11:40;101960.25;;;16.23;100.00
41862;BME280;27537;57.134;-2.136;2022-07-22T01:14:08;101955.22;;;16.17;100.00
41862;BME280;27537;57.134;-2.136;2022-07-22T01:16:34;101957.88;;;15.95;100.00
41862;BME280;27537;57.134;-2.136;2022-07-22T01:19:03;101951.75;;;15.94;100.00
41862;BME280;27537;57.134;-2.136;2022-07-22T01:21:31;101949.50;;;16.06;100.00
41862;BME280;27537;57.134;-2.136;2022-07-22T01:23:59;101940.22;;;15.97;100.00
41862;BME280;27537;57.134;-2.136;2022-07-22T01:26:26;101938.66;;;15.91;100.00
41862;BME280;27537;57.134;-2.136;2022-07-22T01:28:52;101947.63;;;15.65;100.00
41862;BME280;27537;57.134;-2.136;2022-07-22T01:31:20;101947.53;;;15.67;100.00
41862;BME280;27537;57.134;-2.136;2022-07-22T01:33:47;101940.13;;;15.99;100.00
41862;BME280;27537;57.134;-2.136;2022-07-22T01:36:14;101931.41;;;15.97;100.00
41862;BME280;27537;57.134;-2.136;2022-07-22T01:38:41;101936.31;;;15.62;100.00
41862;BME280;27537;57.134;-2.136;2022-07-22T01:41:08;101936.84;;;15.70;100.00
41862;BME280;27537;57.134;-2.136;2022-07-22T01:43:35;101930.06;;;15.86;100.00
41862;BME280;27537;57.134;-2.136;2022-07-22T01:46:02;101936.22;;;15.87;100.00
41862;BME280;27537;57.134;-2.136;2022-07-22T01:48:29;101927.56;;;15.60;100.00
41862;BME280;27537;57.134;-2.136;2022-07-22T01:50:57;101944.78;;;15.70;100.00
41862;BME280;27537;57.134;-2.136;2022-07-22T01:53:24;101931.63;;;15.46;100.00
41862;BME280;27537;57.134;-2.136;2022-07-22T01:55:51;101932.59;;;15.44;100.00
41862;BME280;27537;57.134;-2.136;2022-07-22T01:58:18;101930.22;;;15.60;100.00
41862;BME280;27537;57.134;-2.136;2022-07-22T02:00:45;101927.22;;;15.47;100.00
41862;BME280;27537;57.134;-2.136;2022-07-22T02:03:12;101935.50;;;15.83;100.00
41862;BME280;27537;57.134;-2.136;2022-07-22T02:05:39;101922.97;;;15.65;100.00
41862;BME280;27537;57.134;-2.136;2022-07-22T02:08:08;101927.56;;;15.83;100.00
41862;BME280;27537;57.134;-2.136;2022-07-22T02:10:36;101922.31;;;16.04;100.00
41862;BME280;27537;57.134;-2.136;2022-07-22T02:13:03;101915.69;;;15.93;100.00
41862;BME280;27537;57.134;-2.136;2022-07-22T02:15:30;101929.28;;;15.84;100.00
41862;BME280;27537;57.134;-2.136;2022-07-22T02:17:57;101920.50;;;15.62;100.00
41862;BME280;27537;57.134;-2.136;2022-07-22T02:20:24;101917.75;;;15.41;100.00
41862;BME280;27537;57.134;-2.136;2022-07-22T02:22:51;101903.31;;;15.28;100.00
41862;BME280;27537;57.134;-2.136;2022-07-22T02:25:18;101921.09;;;15.46;100.00
41862;BME280;27537;57.134;-2.136;2022-07-22T02:27:44;101927.53;;;15.61;100.00
41862;BME280;27537;57.134;-2.136;2022-07-22T02:30:12;101906.63;;;15.79;100.00
41862;BME280;27537;57.134;-2.136;2022-07-22T02:32:39;101917.75;;;15.63;100.00
41862;BME280;27537;57.134;-2.136;2022-07-22T02:35:06;101913.94;;;15.70;100.00
41862;BME280;27537;57.134;-2.136;2022-07-22T02:37:32;101921.16;;;15.89;100.00
41862;BME280;27537;57.134;-2.136;2022-07-22T02:39:59;101904.03;;;15.77;100.00
41862;BME280;27537;57.134;-2.136;2022-07-22T02:42:27;101909.16;;;16.02;100.00
41862;BME280;27537;57.134;-2.136;2022-07-22T02:44:54;101909.94;;;15.84;100.00
41862;BME280;27537;57.134;-2.136;2022-07-22T02:47:21;101921.44;;;15.59;100.00
41862;BME280;27537;57.134;-2.136;2022-07-22T02:49:47;101907.81;;;15.48;100.00
41862;BME280;27537;57.134;-2.136;2022-07-22T02:52:14;101908.72;;;15.47;100.00
41862;BME280;27537;57.134;-2.136;2022-07-22T02:54:41;101918.00;;;15.57;100.00
41862;BME280;27537;57.134;-2.136;2022-07-22T02:57:08;101897.19;;;15.27;100.00
41862;BME280;27537;57.134;-2.136;2022-07-22T02:59:35;101894.81;;;15.43;100.00
41862;BME280;27537;57.134;-2.136;2022-07-22T03:02:02;101902.19;;;15.11;100.00
41862;BME280;27537;57.134;-2.136;2022-07-22T03:04:28;101902.50;;;15.26;100.00
41862;BME280;27537;57.134;-2.136;2022-07-22T03:06:55;101906.72;;;15.08;100.00
41862;BME280;27537;57.134;-2.136;2022-07-22T03:09:22;101898.69;;;15.56;100.00
41862;BME280;27537;57.134;-2.136;2022-07-22T03:11:49;101906.88;;;15.49;100.00
41862;BME280;27537;57.134;-2.136;2022-07-22T03:14:15;101906.94;;;15.47;100.00
41862;BME280;27537;57.134;-2.136;2022-07-22T03:16:45;101909.69;;;15.46;100.00
41862;BME280;27537;57.134;-2.136;2022-07-22T03:19:12;101901.25;;;15.36;100.00
41862;BME280;27537;57.134;-2.136;2022-07-22T03:21:39;101896.13;;;15.77;100.00
41862;BME280;27537;57.134;-2.136;2022-07-22T03:24:06;101892.00;;;15.92;100.00
41862;BME280;27537;57.134;-2.136;2022-07-22T03:26:32;101901.00;;;16.08;100.00
41862;BME280;27537;57.134;-2.136;2022-07-22T03:28:59;101890.59;;;15.83;100.00
41862;BME280;27537;57.134;-2.136;2022-07-22T03:31:26;101899.91;;;15.92;100.00
41862;BME280;27537;57.134;-2.136;2022-07-22T03:33:53;101893.75;;;15.91;100.00
41862;BME280;27537;57.134;-2.136;2022-07-22T03:36:20;101885.09;;;15.88;100.00
41862;BME280;27537;57.134;-2.136;2022-07-22T03:38:47;101890.53;;;16.05;100.00
41862;BME280;27537;57.134;-2.136;2022-07-22T03:41:14;101886.16;;;15.84;100.00
41862;BME280;27537;57.134;-2.136;2022-07-22T03:43:41;101886.00;;;16.09;100.00
41862;BME280;27537;57.134;-2.136;2022-07-22T03:46:07;101875.09;;;15.96;100.00
41862;BME280;27537;57.134;-2.136;2022-07-22T03:48:34;101892.66;;;15.97;100.00
41862;BME280;27537;57.134;-2.136;2022-07-22T03:51:01;101895.44;;;15.94;100.00
41862;BME280;27537;57.134;-2.136;2022-07-22T03:53:28;101885.50;;;15.79;100.00
41862;BME280;27537;57.134;-2.136;2022-07-22T03:55:54;101891.38;;;15.85;100.00
41862;BME280;27537;57.134;-2.136;2022-07-22T03:58:21;101908.41;;;15.78;100.00
41862;BME280;27537;57.134;-2.136;2022-07-22T04:00:48;101890.81;;;15.99;100.00
41862;BME280;27537;57.134;-2.136;2022-07-22T04:03:15;101891.00;;;15.94;100.00
41862;BME280;27537;57.134;-2.136;2022-07-22T04:05:41;101886.56;;;15.95;100.00
41862;BME280;27537;57.134;-2.136;2022-07-22T04:08:09;101896.63;;;16.07;100.00
41862;BME280;27537;57.134;-2.136;2022-07-22T04:10:35;101876.50;;;16.05;100.00
41862;BME280;27537;57.134;-2.136;2022-07-22T04:13:02;101881.50;;;15.90;100.00
41862;BME280;27537;57.134;-2.136;2022-07-22T04:15:30;101891.59;;;16.01;100.00
41862;BME280;27537;57.134;-2.136;2022-07-22T04:17:56;101878.41;;;15.79;100.00
41862;BME280;27537;57.134;-2.136;2022-07-22T04:20:23;101870.19;;;15.65;100.00
41862;BME280;27537;57.134;-2.136;2022-07-22T04:22:50;101874.59;;;15.42;100.00
41862;BME280;27537;57.134;-2.136;2022-07-22T04:25:17;101869.16;;;15.47;100.00
41862;BME280;27537;57.134;-2.136;2022-07-22T04:27:43;101883.38;;;15.65;100.00
41862;BME280;27537;57.134;-2.136;2022-07-22T04:30:11;101873.22;;;15.33;100.00
41862;BME280;27537;57.134;-2.136;2022-07-22T04:32:38;101877.75;;;15.52;100.00
41862;BME280;27537;57.134;-2.136;2022-07-22T04:35:05;101883.09;;;15.28;100.00
41862;BME280;27537;57.134;-2.136;2022-07-22T04:37:32;101866.84;;;15.15;100.00
41862;BME280;27537;57.134;-2.136;2022-07-22T04:39:59;101870.16;;;15.44;100.00
41862;BME280;27537;57.134;-2.136;2022-07-22T04:42:26;101869.72;;;15.55;100.00
41862;BME280;27537;57.134;-2.136;2022-07-22T04:44:53;101886.31;;;15.35;100.00
41862;BME280;27537;57.134;-2.136;2022-07-22T04:47:20;101872.78;;;15.44;100.00
41862;BME280;27537;57.134;-2.136;2022-07-22T04:49:46;101867.25;;;15.50;100.00
41862;BME280;27537;57.134;-2.136;2022-07-22T04:52:13;101874.94;;;15.79;100.00
41862;BME280;27537;57.134;-2.136;2022-07-22T04:54:40;101871.91;;;15.88;100.00
41862;BME280;27537;57.134;-2.136;2022-07-22T04:57:08;101859.81;;;15.82;100.00
41862;BME280;27537;57.134;-2.136;2022-07-22T04:59:34;101859.19;;;15.98;100.00
41862;BME280;27537;57.134;-2.136;2022-07-22T05:02:01;101861.41;;;15.86;100.00
41862;BME280;27537;57.134;-2.136;2022-07-22T05:04:29;101862.19;;;15.66;100.00
41862;BME280;27537;57.134;-2.136;2022-07-22T05:06:57;101857.53;;;15.73;100.00
41862;BME280;27537;57.134;-2.136;2022-07-22T05:09:23;101871.78;;;15.47;100.00
41862;BME280;27537;57.134;-2.136;2022-07-22T05:11:50;101864.94;;;15.19;100.00
41862;BME280;27537;57.134;-2.136;2022-07-22T05:14:17;101853.31;;;15.47;100.00
41862;BME280;27537;57.134;-2.136;2022-07-22T05:16:44;101847.53;;;15.59;100.00
41862;BME280;27537;57.134;-2.136;2022-07-22T05:19:10;101855.28;;;15.42;100.00
41862;BME280;27537;57.134;-2.136;2022-07-22T05:21:37;101861.66;;;15.14;100.00
41862;BME280;27537;57.134;-2.136;2022-07-22T05:24:04;101840.66;;;15.33;100.00
41862;BME280;27537;57.134;-2.136;2022-07-22T05:26:31;101847.63;;;15.35;100.00
41862;BME280;27537;57.134;-2.136;2022-07-22T05:28:59;101848.72;;;15.30;100.00
41862;BME280;27537;57.134;-2.136;2022-07-22T05:31:26;101850.19;;;15.37;100.00
41862;BME280;27537;57.134;-2.136;2022-07-22T05:33:54;101832.25;;;15.01;100.00
41862;BME280;27537;57.134;-2.136;2022-07-22T05:36:20;101844.66;;;15.21;100.00
41862;BME280;27537;57.134;-2.136;2022-07-22T05:38:47;101851.91;;;14.92;100.00
41862;BME280;27537;57.134;-2.136;2022-07-22T05:41:14;101858.88;;;14.95;100.00
41862;BME280;27537;57.134;-2.136;2022-07-22T05:43:41;101849.78;;;15.02;100.00
41862;BME280;27537;57.134;-2.136;2022-07-22T05:46:08;101859.75;;;15.17;100.00
41862;BME280;27537;57.134;-2.136;2022-07-22T05:48:35;101821.94;;;15.17;100.00
41862;BME280;27537;57.134;-2.136;2022-07-22T05:51:02;101844.19;;;15.33;100.00
41862;BME280;27537;57.134;-2.136;2022-07-22T05:53:28;101859.66;;;15.19;100.00
41862;BME280;27537;57.134;-2.136;2022-07-22T05:55:55;101857.13;;;15.17;100.00
41862;BME280;27537;57.134;-2.136;2022-07-22T05:58:27;101807.34;;;14.86;100.00
41862;BME280;27537;57.134;-2.136;2022-07-22T06:00:54;101838.56;;;14.97;100.00
41862;BME280;27537;57.134;-2.136;2022-07-22T06:03:22;101808.06;;;14.90;100.00
41862;BME280;27537;57.134;-2.136;2022-07-22T06:05:49;101811.13;;;15.01;100.00
41862;BME280;27537;57.134;-2.136;2022-07-22T06:08:16;101829.06;;;14.93;100.00
41862;BME280;27537;57.134;-2.136;2022-07-22T06:10:43;101814.56;;;15.03;100.00
41862;BME280;27537;57.134;-2.136;2022-07-22T06:13:09;101783.28;;;14.94;100.00
41862;BME280;27537;57.134;-2.136;2022-07-22T06:15:36;101835.09;;;15.41;100.00
41862;BME280;27537;57.134;-2.136;2022-07-22T06:18:03;101835.94;;;15.41;100.00
41862;BME280;27537;57.134;-2.136;2022-07-22T06:20:30;101782.81;;;15.28;100.00
41862;BME280;27537;57.134;-2.136;2022-07-22T06:22:57;101840.72;;;15.53;100.00
41862;BME280;27537;57.134;-2.136;2022-07-22T06:25:24;101758.56;;;15.41;100.00
41862;BME280;27537;57.134;-2.136;2022-07-22T06:28:09;101772.97;;;15.54;100.00
41862;BME280;27537;57.134;-2.136;2022-07-22T06:30:37;101822.38;;;15.50;100.00
41862;BME280;27537;57.134;-2.136;2022-07-22T06:33:04;101792.59;;;15.47;100.00
41862;BME280;27537;57.134;-2.136;2022-07-22T06:35:31;101844.66;;;15.65;100.00
41862;BME280;27537;57.134;-2.136;2022-07-22T06:37:58;101795.81;;;15.55;100.00
41862;BME280;27537;57.134;-2.136;2022-07-22T06:40:34;101793.88;;;15.59;100.00
41862;BME280;27537;57.134;-2.136;2022-07-22T06:43:02;101828.16;;;16.03;100.00
41862;BME280;27537;57.134;-2.136;2022-07-22T06:45:29;101786.59;;;15.86;100.00
41862;BME280;27537;57.134;-2.136;2022-07-22T06:47:57;101819.50;;;15.99;100.00
41862;BME280;27537;57.134;-2.136;2022-07-22T06:50:24;101782.34;;;15.61;100.00
41862;BME280;27537;57.134;-2.136;2022-07-22T06:52:52;101838.50;;;16.07;100.00
41862;BME280;27537;57.134;-2.136;2022-07-22T06:55:19;101784.19;;;15.81;100.00
41862;BME280;27537;57.134;-2.136;2022-07-22T06:57:46;101806.75;;;15.66;100.00
41862;BME280;27537;57.134;-2.136;2022-07-22T07:00:13;101780.59;;;15.82;100.00
41862;BME280;27537;57.134;-2.136;2022-07-22T07:02:40;101840.38;;;16.45;100.00
41862;BME280;27537;57.134;-2.136;2022-07-22T07:05:07;101817.06;;;16.15;100.00
41862;BME280;27537;57.134;-2.136;2022-07-22T07:07:46;101847.03;;;16.35;100.00
41862;BME280;27537;57.134;-2.136;2022-07-22T07:10:13;101829.31;;;16.37;100.00
41862;BME280;27537;57.134;-2.136;2022-07-22T07:12:42;101854.59;;;16.42;100.00
41862;BME280;27537;57.134;-2.136;2022-07-22T07:15:10;101827.75;;;16.32;100.00
41862;BME280;27537;57.134;-2.136;2022-07-22T07:17:54;101800.78;;;16.24;100.00
41862;BME280;27537;57.134;-2.136;2022-07-22T07:20:23;101799.94;;;16.24;100.00
41862;BME280;27537;57.134;-2.136;2022-07-22T07:22:50;101827.75;;;16.12;100.00
41862;BME280;27537;57.134;-2.136;2022-07-22T07:25:18;101830.63;;;16.06;100.00
41862;BME280;27537;57.134;-2.136;2022-07-22T07:27:50;101811.03;;;15.91;100.00
41862;BME280;27537;57.134;-2.136;2022-07-22T07:30:20;101816.19;;;15.94;100.00
41862;BME280;27537;57.134;-2.136;2022-07-22T07:32:47;101817.53;;;16.04;100.00
41862;BME280;27537;57.134;-2.136;2022-07-22T07:35:14;101841.13;;;16.07;100.00
41862;BME280;27537;57.134;-2.136;2022-07-22T07:37:41;101805.69;;;15.92;100.00
41862;BME280;27537;57.134;-2.136;2022-07-22T07:40:08;101836.09;;;16.22;100.00
41862;BME280;27537;57.134;-2.136;2022-07-22T07:42:35;101788.13;;;15.91;100.00
41862;BME280;27537;57.134;-2.136;2022-07-22T07:45:11;101844.09;;;16.41;100.00
41862;BME280;27537;57.134;-2.136;2022-07-22T07:47:38;101784.41;;;16.16;100.00
41862;BME280;27537;57.134;-2.136;2022-07-22T07:50:06;101840.81;;;16.15;100.00
41862;BME280;27537;57.134;-2.136;2022-07-22T07:52:42;101805.03;;;16.08;100.00
41862;BME280;27537;57.134;-2.136;2022-07-22T07:55:17;101838.31;;;16.51;100.00
41862;BME280;27537;57.134;-2.136;2022-07-22T07:57:46;101835.38;;;16.39;100.00
41862;BME280;27537;57.134;-2.136;2022-07-22T08:00:22;101835.63;;;16.53;100.00
41862;BME280;27537;57.134;-2.136;2022-07-22T08:02:50;101804.19;;;16.66;100.00
41862;BME280;27537;57.134;-2.136;2022-07-22T08:05:17;101800.84;;;16.23;100.00
41862;BME280;27537;57.134;-2.136;2022-07-22T08:07:47;101834.47;;;16.40;100.00
41862;BME280;27537;57.134;-2.136;2022-07-22T08:10:15;101769.81;;;16.47;100.00
41862;BME280;27537;57.134;-2.136;2022-07-22T08:13:03;101780.03;;;16.55;100.00
41862;BME280;27537;57.134;-2.136;2022-07-22T08:15:31;101805.25;;;16.62;100.00
41862;BME280;27537;57.134;-2.136;2022-07-22T08:17:58;101794.09;;;16.36;100.00
41862;BME280;27537;57.134;-2.136;2022-07-22T08:20:26;101781.59;;;16.59;100.00
41862;BME280;27537;57.134;-2.136;2022-07-22T08:22:53;101798.25;;;16.80;100.00
41862;BME280;27537;57.134;-2.136;2022-07-22T08:25:21;101794.69;;;16.62;100.00
41862;BME280;27537;57.134;-2.136;2022-07-22T08:27:48;101822.72;;;16.85;100.00
41862;BME280;27537;57.134;-2.136;2022-07-22T08:30:16;101810.22;;;16.88;100.00
41862;BME280;27537;57.134;-2.136;2022-07-22T08:32:43;101822.66;;;16.86;100.00
41862;BME280;27537;57.134;-2.136;2022-07-22T08:35:10;101802.38;;;16.47;100.00
41862;BME280;27537;57.134;-2.136;2022-07-22T08:37:38;101832.88;;;16.75;100.00
41862;BME280;27537;57.134;-2.136;2022-07-22T08:40:07;101820.34;;;16.79;100.00
41862;BME280;27537;57.134;-2.136;2022-07-22T08:42:39;101825.38;;;17.04;100.00
41862;BME280;27537;57.134;-2.136;2022-07-22T08:45:07;101795.38;;;16.86;100.00
41862;BME280;27537;57.134;-2.136;2022-07-22T08:47:48;101821.16;;;17.36;100.00
41862;BME280;27537;57.134;-2.136;2022-07-22T08:50:16;101813.41;;;17.51;100.00
41862;BME280;27537;57.134;-2.136;2022-07-22T08:52:43;101812.34;;;16.99;100.00
41862;BME280;27537;57.134;-2.136;2022-07-22T08:55:10;101796.66;;;17.33;100.00
41862;BME280;27537;57.134;-2.136;2022-07-22T08:57:36;101798.69;;;17.45;100.00
41862;BME280;27537;57.134;-2.136;2022-07-22T09:00:13;101814.03;;;17.56;100.00
41862;BME280;27537;57.134;-2.136;2022-07-22T09:02:42;101812.50;;;17.69;100.00
41862;BME280;27537;57.134;-2.136;2022-07-22T09:05:11;101781.25;;;17.58;100.00
41862;BME280;27537;57.134;-2.136;2022-07-22T09:08:00;101790.53;;;18.02;100.00
41862;BME280;27537;57.134;-2.136;2022-07-22T09:10:32;101800.84;;;18.57;100.00
41862;BME280;27537;57.134;-2.136;2022-07-22T09:13:02;101804.91;;;18.81;100.00
41862;BME280;27537;57.134;-2.136;2022-07-22T09:15:32;101766.56;;;18.70;100.00
41862;BME280;27537;57.134;-2.136;2022-07-22T09:18:00;101777.78;;;18.91;100.00
41862;BME280;27537;57.134;-2.136;2022-07-22T09:20:32;101732.22;;;18.51;100.00
41862;BME280;27537;57.134;-2.136;2022-07-22T09:23:00;101779.22;;;18.81;100.00
41862;BME280;27537;57.134;-2.136;2022-07-22T09:25:34;101796.63;;;19.03;100.00
41862;BME280;27537;57.134;-2.136;2022-07-22T09:30:53;101745.75;;;18.94;100.00
41862;BME280;27537;57.134;-2.136;2022-07-22T09:33:23;101719.94;;;19.28;100.00
41862;BME280;27537;57.134;-2.136;2022-07-22T09:35:50;101779.50;;;19.99;97.91
41862;BME280;27537;57.134;-2.136;2022-07-22T09:38:26;101750.97;;;19.42;93.22
41862;BME280;27537;57.134;-2.136;2022-07-22T09:40:54;101730.78;;;18.77;96.10
41862;BME280;27537;57.134;-2.136;2022-07-22T09:43:21;101742.06;;;18.81;95.87
41862;BME280;27537;57.134;-2.136;2022-07-22T09:45:55;101745.34;;;19.02;94.74
41862;BME280;27537;57.134;-2.136;2022-07-22T09:48:30;101698.44;;;18.87;94.96
41862;BME280;27537;57.134;-2.136;2022-07-22T09:50:58;101707.75;;;18.78;92.09
41862;BME280;27537;57.134;-2.136;2022-07-22T09:53:26;101770.91;;;18.71;91.45
41862;BME280;27537;57.134;-2.136;2022-07-22T09:55:55;101715.63;;;18.48;96.80
41862;BME280;27537;57.134;-2.136;2022-07-22T09:58:23;101744.13;;;18.60;95.97
41862;BME280;27537;57.134;-2.136;2022-07-22T10:00:52;101759.88;;;18.79;88.26
41862;BME280;27537;57.134;-2.136;2022-07-22T10:03:37;101779.47;;;18.27;96.00
41862;BME280;27537;57.134;-2.136;2022-07-22T10:06:07;101717.09;;;17.53;100.00
41862;BME280;27537;57.134;-2.136;2022-07-22T10:08:34;101738.28;;;17.71;100.00
41862;BME280;27537;57.134;-2.136;2022-07-22T10:11:03;101721.88;;;17.80;100.00
41862;BME280;27537;57.134;-2.136;2022-07-22T10:13:33;101699.78;;;18.14;98.26
41862;BME280;27537;57.134;-2.136;2022-07-22T10:16:01;101736.97;;;18.29;95.89
41862;BME280;27537;57.134;-2.136;2022-07-22T10:18:28;101711.22;;;17.99;98.28
41862;BME280;27537;57.134;-2.136;2022-07-22T10:21:04;101748.94;;;18.20;98.48
41862;BME280;27537;57.134;-2.136;2022-07-22T10:23:31;101715.81;;;18.11;96.18
41862;BME280;27537;57.134;-2.136;2022-07-22T10:26:00;101752.56;;;18.35;97.37
41862;BME280;27537;57.134;-2.136;2022-07-22T10:28:34;101759.78;;;18.65;96.74
41862;BME280;27537;57.134;-2.136;2022-07-22T10:33:40;101715.66;;;18.14;100.00
41862;BME280;27537;57.134;-2.136;2022-07-22T10:36:07;101724.16;;;17.53;100.00
41862;BME280;27537;57.134;-2.136;2022-07-22T10:38:36;101699.25;;;17.22;100.00
41862;BME280;27537;57.134;-2.136;2022-07-22T10:41:06;101724.69;;;17.24;100.00
41862;BME280;27537;57.134;-2.136;2022-07-22T10:46:10;101691.25;;;16.87;100.00
41862;BME280;27537;57.134;-2.136;2022-07-22T10:51:18;101725.25;;;17.49;100.00
41862;BME280;27537;57.134;-2.136;2022-07-22T10:53:52;101757.97;;;17.30;100.00
41862;BME280;27537;57.134;-2.136;2022-07-22T10:56:31;101750.22;;;17.08;100.00
41862;BME280;27537;57.134;-2.136;2022-07-22T10:59:15;101729.09;;;16.51;100.00
41862;BME280;27537;57.134;-2.136;2022-07-22T11:01:45;101707.75;;;16.73;100.00
41862;BME280;27537;57.134;-2.136;2022-07-22T11:04:16;101740.66;;;17.05;100.00
41862;BME280;27537;57.134;-2.136;2022-07-22T11:06:46;101706.94;;;17.09;100.00
41862;BME280;27537;57.134;-2.136;2022-07-22T11:09:15;101708.25;;;16.81;100.00
41862;BME280;27537;57.134;-2.136;2022-07-22T11:11:48;101740.00;;;17.00;100.00
41862;BME280;27537;57.134;-2.136;2022-07-22T11:14:33;101702.16;;;16.43;100.00
41862;BME280;27537;57.134;-2.136;2022-07-22T11:17:07;101742.75;;;16.42;100.00
41862;BME280;27537;57.134;-2.136;2022-07-22T11:19:36;101733.28;;;16.74;100.00
41862;BME280;27537;57.134;-2.136;2022-07-22T11:22:07;101728.78;;;16.95;100.00
41862;BME280;27537;57.134;-2.136;2022-07-22T11:24:34;101680.72;;;17.04;100.00
41862;BME280;27537;57.134;-2.136;2022-07-22T11:27:04;101719.81;;;17.34;100.00
41862;BME280;27537;57.134;-2.136;2022-07-22T11:29:38;101700.41;;;16.80;100.00
41862;BME280;27537;57.134;-2.136;2022-07-22T11:32:14;101689.50;;;16.87;100.00
41862;BME280;27537;57.134;-2.136;2022-07-22T11:34:43;101714.88;;;17.44;100.00
41862;BME280;27537;57.134;-2.136;2022-07-22T11:37:14;101715.13;;;17.22;100.00
41862;BME280;27537;57.134;-2.136;2022-07-22T11:39:41;101715.84;;;17.25;100.00
41862;BME280;27537;57.134;-2.136;2022-07-22T11:42:08;101670.75;;;17.44;100.00
41862;BME280;27537;57.134;-2.136;2022-07-22T11:44:37;101718.72;;;17.56;100.00
41862;BME280;27537;57.134;-2.136;2022-07-22T11:47:05;101709.66;;;17.77;100.00
41862;BME280;27537;57.134;-2.136;2022-07-22T11:49:36;101710.91;;;17.88;100.00
41862;BME280;27537;57.134;-2.136;2022-07-22T11:52:05;101709.91;;;17.90;100.00
41862;BME280;27537;57.134;-2.136;2022-07-22T11:54:34;101692.00;;;17.43;100.00
41862;BME280;27537;57.134;-2.136;2022-07-22T11:57:02;101690.41;;;18.40;100.00
41862;BME280;27537;57.134;-2.136;2022-07-22T11:59:29;101685.00;;;18.26;100.00
41862;BME280;27537;57.134;-2.136;2022-07-22T12:01:55;101677.72;;;18.14;100.00
41862;BME280;27537;57.134;-2.136;2022-07-22T12:04:24;101695.59;;;18.26;100.00
41862;BME280;27537;57.134;-2.136;2022-07-22T12:06:52;101667.13;;;18.62;100.00
41862;BME280;27537;57.134;-2.136;2022-07-22T12:09:23;101704.69;;;18.54;100.00
41862;BME280;27537;57.134;-2.136;2022-07-22T12:11:53;101698.34;;;18.88;100.00
41862;BME280;27537;57.134;-2.136;2022-07-22T12:14:27;101633.44;;;18.16;100.00
41862;BME280;27537;57.134;-2.136;2022-07-22T12:16:59;101673.56;;;18.57;100.00
41862;BME280;27537;57.134;-2.136;2022-07-22T12:19:28;101702.53;;;18.92;100.00
41862;BME280;27537;57.134;-2.136;2022-07-22T12:24:28;101700.38;;;18.99;100.00
41862;BME280;27537;57.134;-2.136;2022-07-22T12:26:58;101639.09;;;18.57;100.00
41862;BME280;27537;57.134;-2.136;2022-07-22T12:29:28;101703.66;;;18.88;100.00
41862;BME280;27537;57.134;-2.136;2022-07-22T12:32:00;101671.31;;;19.12;100.00
41862;BME280;27537;57.134;-2.136;2022-07-22T12:34:45;101691.28;;;19.64;96.51
41862;BME280;27537;57.134;-2.136;2022-07-22T12:39:39;101713.06;;;18.94;100.00
41862;BME280;27537;57.134;-2.136;2022-07-22T12:42:16;101703.00;;;18.03;100.00
41862;BME280;27537;57.134;-2.136;2022-07-22T12:47:40;101673.78;;;18.21;100.00
41862;BME280;27537;57.134;-2.136;2022-07-22T12:53:06;101687.81;;;18.55;100.00
41862;BME280;27537;57.134;-2.136;2022-07-22T12:55:49;101671.56;;;18.77;100.00
41862;BME280;27537;57.134;-2.136;2022-07-22T12:58:19;101705.16;;;18.29;100.00